createdAt,value
2023-04-06T00:01:01.176Z,17.98
2023-04-06T00:03:28.158Z,17.52
2023-04-06T00:05:55.068Z,18.20
2023-04-06T00:08:22.547Z,17.85
2023-04-06T00:10:49.333Z,18.05
2023-04-06T00:13:16.315Z,16.48
2023-04-06T00:15:43.305Z,15.90
2023-04-06T00:18:10.273Z,15.82
2023-04-06T00:20:37.171Z,15.35
2023-04-06T00:23:03.948Z,14.70
2023-04-06T00:25:31.110Z,15.48
2023-04-06T00:27:58.332Z,15.93
2023-04-06T00:30:25.597Z,15.55
2023-04-06T00:32:52.466Z,14.68
2023-04-06T00:35:19.577Z,15.23
2023-04-06T00:37:49.245Z,15.65
2023-04-06T00:40:16.682Z,15.63
2023-04-06T00:42:43.627Z,16.60
2023-04-06T00:45:11.173Z,15.10
2023-04-06T00:47:38.161Z,16.63
2023-04-06T00:50:05.436Z,15.73
2023-04-06T00:52:32.283Z,14.77
2023-04-06T00:54:59.052Z,16.00
2023-04-06T00:57:26.015Z,18.85
2023-04-06T00:59:54.005Z,16.48
2023-04-06T01:02:21.073Z,16.30
2023-04-06T01:04:48.189Z,19.85
2023-04-06T01:07:14.967Z,22.77
2023-04-06T01:09:43.013Z,18.65
2023-04-06T01:12:10.074Z,16.63
2023-04-06T01:14:36.903Z,25.60
2023-04-06T01:17:03.885Z,20.92
2023-04-06T01:19:30.707Z,18.50
2023-04-06T01:21:57.639Z,18.58
2023-04-06T01:24:24.542Z,18.20
2023-04-06T01:26:51.722Z,17.77
2023-04-06T01:29:18.515Z,20.02
2023-04-06T01:31:45.611Z,18.40
2023-04-06T01:34:12.460Z,19.27
2023-04-06T01:36:39.234Z,21.65
2023-04-06T01:39:06.330Z,20.40
2023-04-06T01:41:33.338Z,33.40
2023-04-06T01:44:00.281Z,21.73
2023-04-06T01:46:27.295Z,22.70
2023-04-06T01:48:54.183Z,26.77
2023-04-06T01:51:21.352Z,43.55
2023-04-06T01:53:49.376Z,94.70
2023-04-06T01:56:16.337Z,51.67
2023-04-06T01:58:43.505Z,26.40
2023-04-06T02:01:10.623Z,35.20
2023-04-06T02:03:37.481Z,26.40
2023-04-06T02:06:04.956Z,29.17
2023-04-06T02:08:31.909Z,18.70
2023-04-06T02:10:58.801Z,23.95
2023-04-06T02:13:25.700Z,22.52
2023-04-06T02:15:52.526Z,22.52
2023-04-06T02:18:19.607Z,21.35
2023-04-06T02:20:46.779Z,19.88
2023-04-06T02:23:13.683Z,22.40
2023-04-06T02:25:41.283Z,27.13
2023-04-06T02:28:08.362Z,23.88
2023-04-06T02:30:35.615Z,26.80
2023-04-06T02:33:03.094Z,29.70
2023-04-06T02:35:31.621Z,31.42
2023-04-06T02:37:58.622Z,36.03
2023-04-06T02:40:25.709Z,24.42
2023-04-06T02:42:52.694Z,31.35
2023-04-06T02:45:19.539Z,35.72
2023-04-06T02:47:46.455Z,31.05
2023-04-06T02:50:13.312Z,27.60
2023-04-06T02:52:40.123Z,31.30
2023-04-06T02:55:08.738Z,24.17
2023-04-06T02:57:35.644Z,25.02
2023-04-06T03:00:02.584Z,26.48
2023-04-06T03:02:29.476Z,22.35
2023-04-06T03:04:56.481Z,20.90
2023-04-06T03:07:23.486Z,31.92
2023-04-06T03:09:50.784Z,33.40
2023-04-06T03:12:17.761Z,28.88
2023-04-06T03:14:44.669Z,33.90
2023-04-06T03:17:11.567Z,29.08
2023-04-06T03:19:38.480Z,30.90
2023-04-06T03:22:05.330Z,29.75
2023-04-06T03:24:32.173Z,23.33
2023-04-06T03:26:59.044Z,23.88
2023-04-06T03:29:25.822Z,24.08
2023-04-06T03:31:52.603Z,22.52
2023-04-06T03:34:19.387Z,21.75
2023-04-06T03:36:47.147Z,19.95
2023-04-06T03:39:15.167Z,17.77
2023-04-06T03:41:42.038Z,17.20
2023-04-06T03:44:08.894Z,17.17
2023-04-06T03:46:35.885Z,17.80
2023-04-06T03:49:03.283Z,16.60
2023-04-06T03:51:30.373Z,19.42
2023-04-06T03:53:57.278Z,18.50
2023-04-06T03:56:24.065Z,19.80
2023-04-06T03:58:51.902Z,18.45
2023-04-06T04:01:22.108Z,18.17
2023-04-06T04:03:51.446Z,18.67
2023-04-06T04:06:18.670Z,18.30
2023-04-06T04:08:45.732Z,19.27
2023-04-06T04:11:12.547Z,18.25
2023-04-06T04:13:39.484Z,20.17
2023-04-06T04:16:06.469Z,23.92
2023-04-06T04:18:33.292Z,27.83
2023-04-06T04:21:00.284Z,25.88
2023-04-06T04:23:27.107Z,40.05
2023-04-06T04:25:53.954Z,37.42
2023-04-06T04:28:20.856Z,31.88
2023-04-06T04:30:47.753Z,22.98
2023-04-06T04:33:14.545Z,23.38
2023-04-06T04:35:41.426Z,23.40
2023-04-06T04:38:08.286Z,25.33
2023-04-06T04:40:35.093Z,27.10
2023-04-06T04:43:01.864Z,34.50
2023-04-06T04:45:28.789Z,70.43
2023-04-06T04:47:55.903Z,54.78
2023-04-06T04:50:22.822Z,43.92
2023-04-06T04:52:49.604Z,29.15
2023-04-06T04:55:16.618Z,30.90
2023-04-06T04:57:43.522Z,24.10
2023-04-06T05:00:10.952Z,20.95
2023-04-06T05:02:37.869Z,20.17
2023-04-06T05:05:05.178Z,22.00
2023-04-06T05:07:32.130Z,18.30
2023-04-06T05:09:58.955Z,21.00
2023-04-06T05:12:26.270Z,20.98
2023-04-06T05:14:53.094Z,19.42
2023-04-06T05:17:19.925Z,17.27
2023-04-06T05:19:47.266Z,18.02
2023-04-06T05:22:17.166Z,18.45
2023-04-06T05:24:44.353Z,20.88
2023-04-06T05:27:11.334Z,20.88
2023-04-06T05:29:38.194Z,29.05
2023-04-06T05:32:05.436Z,36.25
2023-04-06T05:34:32.423Z,31.00
2023-04-06T05:36:59.201Z,29.30
2023-04-06T05:39:26.622Z,32.58
2023-04-06T05:41:53.542Z,24.40
2023-04-06T05:44:20.448Z,19.33
2023-04-06T05:46:50.702Z,18.63
2023-04-06T05:49:17.631Z,18.83
2023-04-06T05:51:44.409Z,18.50
2023-04-06T05:54:11.224Z,17.65
2023-04-06T05:56:38.009Z,17.23
2023-04-06T05:59:04.871Z,15.95
2023-04-06T06:01:32.089Z,16.73
2023-04-06T06:03:58.933Z,16.55
2023-04-06T06:06:26.189Z,16.92
2023-04-06T06:08:53.039Z,17.48
2023-04-06T06:11:20.199Z,21.08
2023-04-06T06:13:47.174Z,23.35
2023-04-06T06:16:14.050Z,20.88
2023-04-06T06:18:40.912Z,27.77
2023-04-06T06:21:07.704Z,30.73
2023-04-06T06:23:34.537Z,34.40
2023-04-06T06:26:02.137Z,29.48
2023-04-06T06:28:28.981Z,33.47
2023-04-06T06:30:55.838Z,31.80
2023-04-06T06:33:23.028Z,26.58
2023-04-06T06:35:51.282Z,28.05
2023-04-06T06:38:18.632Z,21.38
2023-04-06T06:40:46.970Z,20.73
2023-04-06T06:43:14.023Z,20.02
2023-04-06T06:45:43.381Z,14.52
2023-04-06T06:48:10.353Z,15.13
2023-04-06T06:50:37.363Z,12.25
2023-04-06T06:53:04.307Z,14.95
2023-04-06T06:55:31.169Z,11.27
2023-04-06T06:57:58.086Z,11.55
2023-04-06T07:00:25.001Z,11.48
2023-04-06T07:02:51.958Z,10.63
2023-04-06T07:05:27.688Z,10.80
2023-04-06T07:07:55.991Z,11.80
2023-04-06T07:10:23.473Z,10.15
2023-04-06T07:12:50.375Z,11.07
2023-04-06T07:15:18.506Z,11.48
2023-04-06T07:17:50.354Z,10.15
2023-04-06T07:20:17.301Z,9.52
2023-04-06T07:22:49.373Z,10.48
2023-04-06T07:25:16.364Z,10.27
2023-04-06T07:27:43.332Z,10.65
2023-04-06T07:30:13.512Z,10.45
2023-04-06T07:32:40.379Z,11.43
2023-04-06T07:35:07.409Z,10.85
2023-04-06T07:37:34.202Z,11.00
2023-04-06T07:40:01.087Z,10.30
2023-04-06T07:42:28.007Z,10.88
2023-04-06T07:44:54.827Z,10.98
2023-04-06T07:47:22.129Z,11.40
2023-04-06T07:49:48.993Z,11.77
2023-04-06T07:52:16.053Z,11.23
2023-04-06T07:54:43.322Z,11.20
2023-04-06T07:57:10.261Z,10.65
2023-04-06T07:59:37.401Z,11.73
2023-04-06T08:02:04.319Z,11.68
2023-04-06T08:04:31.407Z,10.63
2023-04-06T08:06:58.260Z,11.00
2023-04-06T08:09:25.315Z,10.95
2023-04-06T08:11:52.142Z,11.27
2023-04-06T08:14:19.530Z,9.00
2023-04-06T08:16:46.843Z,10.50
2023-04-06T08:19:13.734Z,10.55
2023-04-06T08:21:41.095Z,10.50
2023-04-06T08:24:08.400Z,9.82
2023-04-06T08:26:35.608Z,10.88
2023-04-06T08:29:02.495Z,9.50
2023-04-06T08:31:29.459Z,11.00
2023-04-06T08:33:56.588Z,10.90
2023-04-06T08:36:24.067Z,10.07
2023-04-06T08:38:51.333Z,10.82
2023-04-06T08:41:18.864Z,10.60
2023-04-06T08:43:48.122Z,10.43
2023-04-06T08:46:16.260Z,9.65
2023-04-06T08:48:44.206Z,10.25
2023-04-06T08:51:22.709Z,10.00
2023-04-06T08:53:51.049Z,10.65
2023-04-06T08:56:18.531Z,10.73
2023-04-06T08:58:46.156Z,11.05
2023-04-06T09:01:19.154Z,11.70
2023-04-06T09:03:47.650Z,11.23
2023-04-06T09:06:15.747Z,10.50
2023-04-06T09:08:43.029Z,11.35
2023-04-06T09:11:10.382Z,11.95
2023-04-06T09:13:49.481Z,11.18
2023-04-06T09:16:30.687Z,11.25
2023-04-06T09:19:21.658Z,12.13
2023-04-06T09:21:48.415Z,12.27
2023-04-06T09:24:15.284Z,11.57
2023-04-06T09:26:52.762Z,12.10
2023-04-06T09:29:28.336Z,11.93
2023-04-06T09:32:10.870Z,13.57
2023-04-06T09:34:40.998Z,14.27
2023-04-06T09:37:18.942Z,14.75
2023-04-06T09:39:46.728Z,14.90
2023-04-06T09:42:27.732Z,14.32
2023-04-06T09:44:55.444Z,11.52
2023-04-06T09:47:25.843Z,10.40
2023-04-06T09:49:59.320Z,9.70
2023-04-06T09:52:38.245Z,13.05
2023-04-06T09:55:08.981Z,11.93
2023-04-06T09:57:53.886Z,10.98
2023-04-06T10:00:24.376Z,9.50
2023-04-06T10:03:09.731Z,11.88
2023-04-06T10:05:47.940Z,11.45
2023-04-06T10:08:16.333Z,13.30
2023-04-06T10:10:43.557Z,11.90
2023-04-06T10:13:12.601Z,13.02
2023-04-06T10:15:41.344Z,14.02
2023-04-06T10:18:11.186Z,11.15
2023-04-06T10:20:56.138Z,13.70
2023-04-06T10:23:36.797Z,16.20
2023-04-06T10:26:04.457Z,12.43
2023-04-06T10:28:38.604Z,17.60
2023-04-06T10:31:08.716Z,26.63
2023-04-06T10:33:36.304Z,20.02
2023-04-06T10:36:12.078Z,19.85
2023-04-06T10:38:41.728Z,15.30
2023-04-06T10:41:12.859Z,13.30
2023-04-06T10:43:41.638Z,12.00
2023-04-06T10:46:10.546Z,12.25
2023-04-06T10:48:46.580Z,12.35
2023-04-06T10:53:44.756Z,12.05
2023-04-06T10:56:13.101Z,13.90
2023-04-06T10:58:47.004Z,12.30
2023-04-06T11:01:15.783Z,14.00
2023-04-06T11:03:54.216Z,13.18
2023-04-06T11:06:25.757Z,13.77
2023-04-06T11:08:53.282Z,15.13
2023-04-06T11:11:22.330Z,16.50
2023-04-06T11:13:53.169Z,14.32
2023-04-06T11:16:22.151Z,13.88
2023-04-06T11:18:50.936Z,12.45
2023-04-06T11:21:18.636Z,13.65
2023-04-06T11:23:45.686Z,14.70
2023-04-06T11:26:16.421Z,15.35
2023-04-06T11:28:46.616Z,12.27
2023-04-06T11:31:13.621Z,13.13
2023-04-06T11:33:40.881Z,14.68
2023-04-06T11:36:08.269Z,14.85
2023-04-06T11:38:35.458Z,13.55
2023-04-06T11:41:03.080Z,14.38
2023-04-06T11:43:31.651Z,14.75
2023-04-06T11:46:06.403Z,15.70
2023-04-06T11:48:33.396Z,15.15
2023-04-06T11:51:02.187Z,14.57
2023-04-06T11:53:30.232Z,19.63
2023-04-06T11:55:57.728Z,19.83
2023-04-06T11:58:24.636Z,16.52
2023-04-06T12:00:51.533Z,19.38
2023-04-06T12:03:18.400Z,20.55
2023-04-06T12:05:46.212Z,19.65
2023-04-06T12:08:13.138Z,20.05
2023-04-06T12:10:40.396Z,21.23
2023-04-06T12:13:07.269Z,19.08
2023-04-06T12:15:34.430Z,24.40
2023-04-06T12:18:01.497Z,29.10
2023-04-06T12:20:28.569Z,24.30
2023-04-06T12:22:55.558Z,29.48
2023-04-06T12:25:22.336Z,28.45
2023-04-06T12:27:49.178Z,27.85
2023-04-06T12:30:16.454Z,23.35
2023-04-06T12:32:43.287Z,31.35
2023-04-06T12:35:10.611Z,25.77
2023-04-06T12:37:37.907Z,29.05
2023-04-06T12:40:05.404Z,37.67
2023-04-06T12:42:32.249Z,28.25
2023-04-06T12:44:58.980Z,23.70
2023-04-06T12:47:27.528Z,20.10
2023-04-06T12:49:55.841Z,21.52
2023-04-06T12:52:22.799Z,20.15
2023-04-06T12:54:51.196Z,18.35
2023-04-06T12:57:18.311Z,16.05
2023-04-06T12:59:45.889Z,16.90
2023-04-06T13:02:13.365Z,16.95
2023-04-06T13:04:40.301Z,16.77
2023-04-06T13:07:07.149Z,14.95
2023-04-06T13:09:33.968Z,15.32
2023-04-06T13:12:02.125Z,14.00
2023-04-06T13:14:29.035Z,14.38
2023-04-06T13:16:56.024Z,11.32
2023-04-06T13:19:23.703Z,13.27
2023-04-06T13:21:50.745Z,13.88
2023-04-06T13:24:17.899Z,12.73
2023-04-06T13:26:45.019Z,13.05
2023-04-06T13:29:12.054Z,12.35
2023-04-06T13:31:39.957Z,12.70
2023-04-06T13:34:07.103Z,13.15
2023-04-06T13:36:34.078Z,12.80
2023-04-06T13:39:00.983Z,13.23
2023-04-06T13:41:27.967Z,14.68
2023-04-06T13:43:54.851Z,16.20
2023-04-06T13:46:21.765Z,19.13
2023-04-06T13:48:49.054Z,18.92
2023-04-06T13:51:16.405Z,20.98
2023-04-06T13:53:43.413Z,21.90
2023-04-06T13:56:10.539Z,25.63
2023-04-06T13:58:37.749Z,25.77
2023-04-06T14:01:11.250Z,26.83
2023-04-06T14:03:38.747Z,29.58
2023-04-06T14:06:20.881Z,28.98
2023-04-06T14:08:58.110Z,27.50
2023-04-06T14:11:25.173Z,28.40
2023-04-06T14:13:52.145Z,29.90
2023-04-06T14:16:20.779Z,31.63
2023-04-06T14:18:47.782Z,32.55
2023-04-06T14:21:14.490Z,30.73
2023-04-06T14:23:41.676Z,28.13
2023-04-06T14:26:09.595Z,28.90
2023-04-06T14:28:37.450Z,28.70
2023-04-06T14:31:12.934Z,28.73
2023-04-06T14:33:40.896Z,29.83
2023-04-06T14:36:09.736Z,31.33
2023-04-06T14:38:36.781Z,33.55
2023-04-06T14:41:03.732Z,30.90
2023-04-06T14:43:31.102Z,28.85
2023-04-06T14:46:01.868Z,24.27
2023-04-06T14:48:29.234Z,24.30
2023-04-06T14:50:59.146Z,24.50
2023-04-06T14:53:27.325Z,24.15
2023-04-06T14:55:54.160Z,21.20
2023-04-06T14:58:21.991Z,22.75
2023-04-06T15:00:49.350Z,25.50
2023-04-06T15:03:17.303Z,25.55
2023-04-06T15:05:44.350Z,23.10
2023-04-06T15:08:11.237Z,23.13
2023-04-06T15:10:38.041Z,26.13
2023-04-06T15:13:04.883Z,21.92
2023-04-06T15:15:31.972Z,24.05
2023-04-06T15:17:58.955Z,23.15
2023-04-06T15:20:25.914Z,24.15
2023-04-06T15:22:52.827Z,19.85
2023-04-06T15:25:19.786Z,22.35
2023-04-06T15:27:46.635Z,23.52
2023-04-06T15:30:13.832Z,22.25
2023-04-06T15:32:40.974Z,22.33
2023-04-06T15:35:12.304Z,17.70
2023-04-06T15:37:39.919Z,19.05
2023-04-06T15:40:07.459Z,21.50
2023-04-06T15:42:34.328Z,20.88
2023-04-06T15:45:01.681Z,20.08
2023-04-06T15:47:28.568Z,21.55
2023-04-06T15:49:55.352Z,20.33
2023-04-06T15:52:23.010Z,20.50
2023-04-06T15:54:50.158Z,17.73
2023-04-06T15:57:16.947Z,20.35
2023-04-06T15:59:43.725Z,20.52
2023-04-06T16:02:10.631Z,20.98
2023-04-06T16:04:37.899Z,19.15
2023-04-06T16:07:05.112Z,20.77
2023-04-06T16:09:32.057Z,20.75
2023-04-06T16:11:58.811Z,18.60
2023-04-06T16:14:25.755Z,20.30
2023-04-06T16:16:53.193Z,19.90
2023-04-06T16:19:19.996Z,18.40
2023-04-06T16:21:47.597Z,18.13
2023-04-06T16:24:14.414Z,20.85
2023-04-06T16:26:41.931Z,18.08
2023-04-06T16:29:10.417Z,20.77
2023-04-06T16:31:37.243Z,22.52
2023-04-06T16:34:04.161Z,17.88
2023-04-06T16:36:34.149Z,19.13
2023-04-06T16:39:02.333Z,20.75
2023-04-06T16:41:29.576Z,21.00
2023-04-06T16:43:57.480Z,21.08
2023-04-06T16:46:34.707Z,20.17
2023-04-06T16:49:03.353Z,21.08
2023-04-06T16:51:35.960Z,20.75
2023-04-06T16:54:03.091Z,20.52
2023-04-06T16:56:35.034Z,19.98
2023-04-06T16:59:01.862Z,14.23
2023-04-06T17:01:29.874Z,15.38
2023-04-06T17:03:57.033Z,13.50
2023-04-06T17:06:24.210Z,10.70
2023-04-06T17:08:51.370Z,13.13
2023-04-06T17:11:23.460Z,13.00
2023-04-06T17:13:54.831Z,12.18
2023-04-06T17:16:21.708Z,11.88
2023-04-06T17:18:48.523Z,12.48
2023-04-06T17:21:17.107Z,13.13
2023-04-06T17:23:47.675Z,11.50
2023-04-06T17:26:14.685Z,11.88
2023-04-06T17:28:41.435Z,11.75
2023-04-06T17:31:10.670Z,10.77
2023-04-06T17:33:38.845Z,10.30
2023-04-06T17:36:07.823Z,9.88
2023-04-06T17:38:34.741Z,9.52
2023-04-06T17:41:04.878Z,9.55
2023-04-06T17:43:32.304Z,9.23
2023-04-06T17:45:59.562Z,8.73
2023-04-06T17:48:27.778Z,8.43
2023-04-06T17:50:54.543Z,9.13
2023-04-06T17:53:22.021Z,9.05
2023-04-06T17:55:48.886Z,9.25
2023-04-06T17:58:15.666Z,7.00
2023-04-06T18:00:42.673Z,9.35
2023-04-06T18:03:09.543Z,8.48
2023-04-06T18:05:36.357Z,9.10
2023-04-06T18:08:03.136Z,10.30
2023-04-06T18:10:29.991Z,8.52
2023-04-06T18:12:57.283Z,9.38
2023-04-06T18:15:24.107Z,9.63
2023-04-06T18:17:51.057Z,9.70
2023-04-06T18:20:18.019Z,10.00
2023-04-06T18:22:44.780Z,10.98
2023-04-06T18:25:12.994Z,10.70
2023-04-06T18:27:39.847Z,10.25
2023-04-06T18:30:07.290Z,10.40
2023-04-06T18:32:34.243Z,10.18
2023-04-06T18:35:01.097Z,10.77
2023-04-06T18:37:27.987Z,9.90
2023-04-06T18:39:54.898Z,10.60
2023-04-06T18:42:21.737Z,11.80
2023-04-06T18:44:48.695Z,12.48
2023-04-06T18:47:15.775Z,12.20
2023-04-06T18:49:42.651Z,11.45
2023-04-06T18:52:09.478Z,11.32
2023-04-06T18:54:36.350Z,12.85
2023-04-06T18:57:04.163Z,11.98
2023-04-06T18:59:31.808Z,11.50
2023-04-06T19:01:59.352Z,11.75
2023-04-06T19:04:27.043Z,10.55
2023-04-06T19:06:55.331Z,10.80
2023-04-06T19:09:22.224Z,10.65
2023-04-06T19:11:51.488Z,11.07
2023-04-06T19:14:18.366Z,11.30
2023-04-06T19:16:52.062Z,10.43
2023-04-06T19:19:19.783Z,11.48
2023-04-06T19:21:46.757Z,11.38
2023-04-06T19:24:13.680Z,13.82
2023-04-06T19:26:42.446Z,13.50
2023-04-06T19:29:10.445Z,15.52
2023-04-06T19:31:37.382Z,17.88
2023-04-06T19:34:04.920Z,19.05
2023-04-06T19:36:32.403Z,20.67
2023-04-06T19:38:59.654Z,21.70
2023-04-06T19:41:27.375Z,21.58
2023-04-06T19:43:54.250Z,23.27
2023-04-06T19:46:21.647Z,22.67
2023-04-06T19:48:48.535Z,22.15
2023-04-06T19:51:15.522Z,20.45
2023-04-06T19:53:42.601Z,21.15
2023-04-06T19:56:10.296Z,21.15
2023-04-06T19:58:38.493Z,20.65
2023-04-06T20:01:06.812Z,20.35
2023-04-06T20:03:33.782Z,19.35
2023-04-06T20:06:01.146Z,18.30
2023-04-06T20:08:29.821Z,18.48
2023-04-06T20:11:04.219Z,16.27
2023-04-06T20:13:33.294Z,16.83
2023-04-06T20:16:00.245Z,15.27
2023-04-06T20:18:27.053Z,16.52
2023-04-06T20:20:54.572Z,15.55
2023-04-06T20:23:21.353Z,16.48
2023-04-06T20:25:48.197Z,15.25
2023-04-06T20:28:15.065Z,15.38
2023-04-06T20:30:41.907Z,15.57
2023-04-06T20:33:08.770Z,13.82
2023-04-06T20:35:35.849Z,14.98
2023-04-06T20:38:02.806Z,14.27
2023-04-06T20:40:29.753Z,15.27
2023-04-06T20:42:57.500Z,15.27
2023-04-06T20:45:25.910Z,13.93
2023-04-06T20:47:55.306Z,14.55
2023-04-06T20:50:25.055Z,12.45
2023-04-06T20:52:51.861Z,16.02
2023-04-06T20:55:18.754Z,14.05
2023-04-06T20:57:46.436Z,14.68
2023-04-06T21:00:13.571Z,13.60
2023-04-06T21:02:41.177Z,13.27
2023-04-06T21:05:10.389Z,13.32
2023-04-06T21:07:40.762Z,13.10
2023-04-06T21:10:08.082Z,12.00
2023-04-06T21:12:35.002Z,12.40
2023-04-06T21:15:02.225Z,11.90
2023-04-06T21:17:29.074Z,11.50
2023-04-06T21:19:56.020Z,10.93
2023-04-06T21:22:23.493Z,10.98
2023-04-06T21:24:50.469Z,11.60
2023-04-06T21:27:17.314Z,12.00
2023-04-06T21:29:44.073Z,11.98
2023-04-06T21:32:11.012Z,11.55
2023-04-06T21:34:37.801Z,9.98
2023-04-06T21:37:04.565Z,9.18
2023-04-06T21:39:31.362Z,9.70
2023-04-06T21:41:58.658Z,9.50
2023-04-06T21:44:25.495Z,9.93
2023-04-06T21:46:52.279Z,10.02
2023-04-06T21:49:19.162Z,10.95
2023-04-06T21:51:46.162Z,9.80
2023-04-06T21:54:13.178Z,9.95
2023-04-06T21:56:39.963Z,10.23
2023-04-06T21:59:06.849Z,10.27
2023-04-06T22:01:33.699Z,11.50
2023-04-06T22:04:02.371Z,12.13
2023-04-06T22:06:30.091Z,12.05
2023-04-06T22:08:58.327Z,12.70
2023-04-06T22:11:25.952Z,13.18
2023-04-06T22:13:52.872Z,11.60
2023-04-06T22:16:19.865Z,11.57
2023-04-06T22:18:46.750Z,10.48
2023-04-06T22:21:13.710Z,11.88
2023-04-06T22:23:42.540Z,10.48
2023-04-06T22:26:10.782Z,10.20
2023-04-06T22:28:38.008Z,11.30
2023-04-06T22:31:04.875Z,10.63
2023-04-06T22:33:31.864Z,10.95
2023-04-06T22:35:58.776Z,10.55
2023-04-06T22:38:25.647Z,10.30
2023-04-06T22:40:52.471Z,9.50
2023-04-06T22:43:19.304Z,10.13
2023-04-06T22:45:46.131Z,9.75
2023-04-06T22:48:12.962Z,8.20
2023-04-06T22:50:39.794Z,8.25
2023-04-06T22:53:07.201Z,8.75
2023-04-06T22:55:34.132Z,7.97
2023-04-06T22:58:01.030Z,8.68
2023-04-06T23:00:27.965Z,8.40
2023-04-06T23:02:54.874Z,8.13
2023-04-06T23:05:21.889Z,8.75
2023-04-06T23:07:48.886Z,7.80
2023-04-06T23:10:15.740Z,8.63
2023-04-06T23:12:42.644Z,8.50
2023-04-06T23:15:10.172Z,7.57
2023-04-06T23:17:37.114Z,7.50
2023-04-06T23:20:04.484Z,7.20
2023-04-06T23:22:31.302Z,8.25
2023-04-06T23:24:58.061Z,8.15
2023-04-06T23:27:24.887Z,7.25
2023-04-06T23:29:51.834Z,7.72
2023-04-06T23:32:18.712Z,7.32
2023-04-06T23:34:45.678Z,7.20
2023-04-06T23:37:12.644Z,7.82
2023-04-06T23:39:39.565Z,8.50
2023-04-06T23:42:06.486Z,9.23
2023-04-06T23:44:33.289Z,9.27
2023-04-06T23:47:00.046Z,8.07
2023-04-06T23:49:27.185Z,8.35
2023-04-06T23:51:53.938Z,8.25
2023-04-06T23:54:20.775Z,8.32
2023-04-06T23:56:47.656Z,8.23
2023-04-06T23:59:14.735Z,8.60
